sensor_id;sensor_type;location;lat;lon;timestamp;P1;durP1;ratioP1;P2;durP2;ratioP2
77214;SDS011;66210;53.282;9.864;2024-03-02T00:00:31;12.30;;;8.10;;
77214;SDS011;66210;53.282;9.864;2024-03-02T00:02:58;13.38;;;7.75;;
77214;SDS011;66210;53.282;9.864;2024-03-02T00:05:25;12.13;;;7.25;;
77214;SDS011;66210;53.282;9.864;2024-03-02T00:07:52;11.48;;;7.28;;
77214;SDS011;66210;53.282;9.864;2024-03-02T00:10:27;12.70;;;7.53;;
77214;SDS011;66210;53.282;9.864;2024-03-02T00:13:06;12.63;;;7.72;;
77214;SDS011;66210;53.282;9.864;2024-03-02T00:15:47;14.15;;;8.57;;
77214;SDS011;66210;53.282;9.864;2024-03-02T00:18:17;14.07;;;7.30;;
77214;SDS011;66210;53.282;9.864;2024-03-02T00:20:46;13.52;;;8.02;;
77214;SDS011;66210;53.282;9.864;2024-03-02T00:23:16;14.05;;;7.50;;
77214;SDS011;66210;53.282;9.864;2024-03-02T00:25:49;14.52;;;7.68;;
77214;SDS011;66210;53.282;9.864;2024-03-02T00:31:06;12.30;;;7.15;;
77214;SDS011;66210;53.282;9.864;2024-03-02T00:33:45;11.48;;;6.65;;
77214;SDS011;66210;53.282;9.864;2024-03-02T00:36:14;16.55;;;7.53;;
77214;SDS011;66210;53.282;9.864;2024-03-02T00:38:49;14.32;;;7.90;;
77214;SDS011;66210;53.282;9.864;2024-03-02T00:41:27;12.60;;;6.82;;
77214;SDS011;66210;53.282;9.864;2024-03-02T00:44:02;13.85;;;7.10;;
77214;SDS011;66210;53.282;9.864;2024-03-02T00:46:38;11.90;;;6.18;;
77214;SDS011;66210;53.282;9.864;2024-03-02T00:49:16;11.45;;;7.35;;
77214;SDS011;66210;53.282;9.864;2024-03-02T00:51:49;13.77;;;7.45;;
77214;SDS011;66210;53.282;9.864;2024-03-02T00:54:25;11.02;;;5.97;;
77214;SDS011;66210;53.282;9.864;2024-03-02T00:56:53;10.15;;;6.50;;
77214;SDS011;66210;53.282;9.864;2024-03-02T00:59:22;13.10;;;7.30;;
77214;SDS011;66210;53.282;9.864;2024-03-02T01:01:49;10.73;;;7.00;;
77214;SDS011;66210;53.282;9.864;2024-03-02T01:04:16;11.05;;;6.55;;
77214;SDS011;66210;53.282;9.864;2024-03-02T01:06:43;10.85;;;6.35;;
77214;SDS011;66210;53.282;9.864;2024-03-02T01:09:10;14.75;;;7.05;;
77214;SDS011;66210;53.282;9.864;2024-03-02T01:11:39;10.90;;;6.75;;
77214;SDS011;66210;53.282;9.864;2024-03-02T01:14:06;10.75;;;5.63;;
77214;SDS011;66210;53.282;9.864;2024-03-02T01:16:32;13.32;;;6.90;;
77214;SDS011;66210;53.282;9.864;2024-03-02T01:18:59;12.88;;;8.02;;
77214;SDS011;66210;53.282;9.864;2024-03-02T01:21:26;13.15;;;6.40;;
77214;SDS011;66210;53.282;9.864;2024-03-02T01:23:53;12.05;;;6.43;;
77214;SDS011;66210;53.282;9.864;2024-03-02T01:26:20;12.05;;;6.63;;
77214;SDS011;66210;53.282;9.864;2024-03-02T01:28:47;13.95;;;6.72;;
77214;SDS011;66210;53.282;9.864;2024-03-02T01:31:13;13.95;;;6.93;;
77214;SDS011;66210;53.282;9.864;2024-03-02T01:33:40;12.80;;;7.10;;
77214;SDS011;66210;53.282;9.864;2024-03-02T01:36:07;10.52;;;6.40;;
77214;SDS011;66210;53.282;9.864;2024-03-02T01:38:35;14.63;;;6.40;;
77214;SDS011;66210;53.282;9.864;2024-03-02T01:41:01;11.02;;;6.65;;
77214;SDS011;66210;53.282;9.864;2024-03-02T01:43:29;10.77;;;6.47;;
77214;SDS011;66210;53.282;9.864;2024-03-02T01:45:55;13.00;;;6.47;;
77214;SDS011;66210;53.282;9.864;2024-03-02T01:48:23;11.63;;;6.20;;
77214;SDS011;66210;53.282;9.864;2024-03-02T01:50:50;10.32;;;6.30;;
77214;SDS011;66210;53.282;9.864;2024-03-02T01:53:17;15.18;;;7.85;;
77214;SDS011;66210;53.282;9.864;2024-03-02T01:55:43;10.55;;;7.32;;
77214;SDS011;66210;53.282;9.864;2024-03-02T01:58:10;12.32;;;6.70;;
77214;SDS011;66210;53.282;9.864;2024-03-02T02:00:37;9.63;;;5.78;;
77214;SDS011;66210;53.282;9.864;2024-03-02T02:03:04;12.95;;;6.15;;
77214;SDS011;66210;53.282;9.864;2024-03-02T02:05:31;9.65;;;6.28;;
77214;SDS011;66210;53.282;9.864;2024-03-02T02:07:58;12.43;;;7.07;;
77214;SDS011;66210;53.282;9.864;2024-03-02T02:10:25;11.95;;;6.32;;
77214;SDS011;66210;53.282;9.864;2024-03-02T02:12:52;11.23;;;6.78;;
77214;SDS011;66210;53.282;9.864;2024-03-02T02:15:23;10.10;;;6.72;;
77214;SDS011;66210;53.282;9.864;2024-03-02T02:17:50;11.27;;;7.25;;
77214;SDS011;66210;53.282;9.864;2024-03-02T02:20:17;12.27;;;7.53;;
77214;SDS011;66210;53.282;9.864;2024-03-02T02:22:55;13.95;;;8.00;;
77214;SDS011;66210;53.282;9.864;2024-03-02T02:25:32;10.77;;;6.80;;
77214;SDS011;66210;53.282;9.864;2024-03-02T02:27:59;16.10;;;7.55;;
77214;SDS011;66210;53.282;9.864;2024-03-02T02:30:26;10.93;;;6.57;;
77214;SDS011;66210;53.282;9.864;2024-03-02T02:32:55;11.50;;;7.30;;
77214;SDS011;66210;53.282;9.864;2024-03-02T02:35:22;12.98;;;7.47;;
77214;SDS011;66210;53.282;9.864;2024-03-02T02:37:51;14.55;;;8.00;;
77214;SDS011;66210;53.282;9.864;2024-03-02T02:40:20;13.27;;;7.82;;
77214;SDS011;66210;53.282;9.864;2024-03-02T02:42:47;13.48;;;7.88;;
77214;SDS011;66210;53.282;9.864;2024-03-02T02:45:15;11.80;;;6.72;;
77214;SDS011;66210;53.282;9.864;2024-03-02T02:47:43;13.43;;;7.93;;
77214;SDS011;66210;53.282;9.864;2024-03-02T02:50:11;11.93;;;7.65;;
77214;SDS011;66210;53.282;9.864;2024-03-02T02:52:39;13.70;;;7.03;;
77214;SDS011;66210;53.282;9.864;2024-03-02T02:55:08;11.48;;;7.25;;
77214;SDS011;66210;53.282;9.864;2024-03-02T02:57:37;11.82;;;6.88;;
77214;SDS011;66210;53.282;9.864;2024-03-02T03:00:06;11.57;;;6.50;;
77214;SDS011;66210;53.282;9.864;2024-03-02T03:02:37;13.38;;;8.30;;
77214;SDS011;66210;53.282;9.864;2024-03-02T03:05:11;11.70;;;7.05;;
77214;SDS011;66210;53.282;9.864;2024-03-02T03:07:39;17.20;;;7.95;;
77214;SDS011;66210;53.282;9.864;2024-03-02T03:10:07;12.63;;;6.85;;
77214;SDS011;66210;53.282;9.864;2024-03-02T03:12:34;14.10;;;8.07;;
77214;SDS011;66210;53.282;9.864;2024-03-02T03:15:02;13.88;;;7.85;;
77214;SDS011;66210;53.282;9.864;2024-03-02T03:17:31;11.57;;;7.90;;
77214;SDS011;66210;53.282;9.864;2024-03-02T03:19:58;13.82;;;7.05;;
77214;SDS011;66210;53.282;9.864;2024-03-02T03:22:25;11.90;;;7.35;;
77214;SDS011;66210;53.282;9.864;2024-03-02T03:24:52;15.20;;;7.22;;
77214;SDS011;66210;53.282;9.864;2024-03-02T03:27:19;11.32;;;7.43;;
77214;SDS011;66210;53.282;9.864;2024-03-02T03:29:46;13.85;;;7.80;;
77214;SDS011;66210;53.282;9.864;2024-03-02T03:32:13;14.98;;;8.80;;
77214;SDS011;66210;53.282;9.864;2024-03-02T03:34:40;13.35;;;8.30;;
77214;SDS011;66210;53.282;9.864;2024-03-02T03:37:07;13.38;;;8.23;;
77214;SDS011;66210;53.282;9.864;2024-03-02T03:39:34;14.52;;;8.35;;
77214;SDS011;66210;53.282;9.864;2024-03-02T03:42:03;14.50;;;8.85;;
77214;SDS011;66210;53.282;9.864;2024-03-02T03:44:30;13.15;;;8.18;;
77214;SDS011;66210;53.282;9.864;2024-03-02T03:46:56;14.95;;;8.48;;
77214;SDS011;66210;53.282;9.864;2024-03-02T03:49:23;15.23;;;8.68;;
77214;SDS011;66210;53.282;9.864;2024-03-02T03:51:50;17.67;;;8.35;;
77214;SDS011;66210;53.282;9.864;2024-03-02T03:54:17;18.30;;;10.05;;
77214;SDS011;66210;53.282;9.864;2024-03-02T03:56:44;14.90;;;9.75;;
77214;SDS011;66210;53.282;9.864;2024-03-02T03:59:10;16.08;;;9.45;;
77214;SDS011;66210;53.282;9.864;2024-03-02T04:01:37;18.83;;;10.05;;
77214;SDS011;66210;53.282;9.864;2024-03-02T04:04:04;22.60;;;11.20;;
77214;SDS011;66210;53.282;9.864;2024-03-02T04:06:31;15.63;;;9.27;;
77214;SDS011;66210;53.282;9.864;2024-03-02T04:08:58;16.20;;;8.88;;
77214;SDS011;66210;53.282;9.864;2024-03-02T04:11:25;15.18;;;8.80;;
77214;SDS011;66210;53.282;9.864;2024-03-02T04:13:52;13.18;;;8.65;;
77214;SDS011;66210;53.282;9.864;2024-03-02T04:16:22;15.45;;;8.15;;
77214;SDS011;66210;53.282;9.864;2024-03-02T04:18:49;15.98;;;9.40;;
77214;SDS011;66210;53.282;9.864;2024-03-02T04:21:16;14.95;;;9.07;;
77214;SDS011;66210;53.282;9.864;2024-03-02T04:23:42;19.52;;;9.20;;
77214;SDS011;66210;53.282;9.864;2024-03-02T04:26:09;14.38;;;9.45;;
77214;SDS011;66210;53.282;9.864;2024-03-02T04:28:36;14.20;;;9.45;;
77214;SDS011;66210;53.282;9.864;2024-03-02T04:31:03;17.70;;;9.27;;
77214;SDS011;66210;53.282;9.864;2024-03-02T04:33:30;18.02;;;9.32;;
77214;SDS011;66210;53.282;9.864;2024-03-02T04:35:57;18.63;;;10.00;;
77214;SDS011;66210;53.282;9.864;2024-03-02T04:38:24;17.85;;;9.77;;
77214;SDS011;66210;53.282;9.864;2024-03-02T04:40:51;21.35;;;11.25;;
77214;SDS011;66210;53.282;9.864;2024-03-02T04:43:17;15.73;;;10.15;;
77214;SDS011;66210;53.282;9.864;2024-03-02T04:45:48;20.52;;;10.07;;
77214;SDS011;66210;53.282;9.864;2024-03-02T04:48:15;19.58;;;11.05;;
77214;SDS011;66210;53.282;9.864;2024-03-02T04:50:42;21.20;;;11.15;;
77214;SDS011;66210;53.282;9.864;2024-03-02T04:53:09;19.05;;;10.65;;
77214;SDS011;66210;53.282;9.864;2024-03-02T04:55:35;20.52;;;9.65;;
77214;SDS011;66210;53.282;9.864;2024-03-02T04:58:08;17.05;;;10.50;;
77214;SDS011;66210;53.282;9.864;2024-03-02T05:00:35;21.40;;;10.02;;
77214;SDS011;66210;53.282;9.864;2024-03-02T05:03:02;18.15;;;10.60;;
77214;SDS011;66210;53.282;9.864;2024-03-02T05:05:29;18.85;;;11.10;;
77214;SDS011;66210;53.282;9.864;2024-03-02T05:07:56;18.95;;;10.40;;
77214;SDS011;66210;53.282;9.864;2024-03-02T05:10:22;19.48;;;10.73;;
77214;SDS011;66210;53.282;9.864;2024-03-02T05:12:50;19.52;;;9.73;;
77214;SDS011;66210;53.282;9.864;2024-03-02T05:15:24;19.98;;;11.40;;
77214;SDS011;66210;53.282;9.864;2024-03-02T05:17:51;19.50;;;9.93;;
77214;SDS011;66210;53.282;9.864;2024-03-02T05:20:18;14.85;;;9.55;;
77214;SDS011;66210;53.282;9.864;2024-03-02T05:22:45;19.33;;;10.68;;
77214;SDS011;66210;53.282;9.864;2024-03-02T05:25:12;15.88;;;10.25;;
77214;SDS011;66210;53.282;9.864;2024-03-02T05:27:39;18.33;;;9.95;;
77214;SDS011;66210;53.282;9.864;2024-03-02T05:30:06;17.83;;;10.18;;
77214;SDS011;66210;53.282;9.864;2024-03-02T05:32:34;18.40;;;11.32;;
77214;SDS011;66210;53.282;9.864;2024-03-02T05:35:01;20.88;;;10.45;;
77214;SDS011;66210;53.282;9.864;2024-03-02T05:37:29;17.50;;;10.35;;
77214;SDS011;66210;53.282;9.864;2024-03-02T05:39:56;19.90;;;10.55;;
77214;SDS011;66210;53.282;9.864;2024-03-02T05:42:23;21.65;;;10.38;;
77214;SDS011;66210;53.282;9.864;2024-03-02T05:44:50;18.33;;;10.32;;
77214;SDS011;66210;53.282;9.864;2024-03-02T05:47:17;18.25;;;9.88;;
77214;SDS011;66210;53.282;9.864;2024-03-02T05:49:43;20.52;;;10.30;;
77214;SDS011;66210;53.282;9.864;2024-03-02T05:52:10;15.98;;;9.57;;
77214;SDS011;66210;53.282;9.864;2024-03-02T05:54:38;20.08;;;10.48;;
77214;SDS011;66210;53.282;9.864;2024-03-02T05:57:05;16.02;;;9.40;;
77214;SDS011;66210;53.282;9.864;2024-03-02T05:59:58;18.20;;;10.35;;
77214;SDS011;66210;53.282;9.864;2024-03-02T06:02:25;20.92;;;9.73;;
77214;SDS011;66210;53.282;9.864;2024-03-02T06:04:53;19.55;;;10.63;;
77214;SDS011;66210;53.282;9.864;2024-03-02T06:07:21;21.88;;;9.95;;
77214;SDS011;66210;53.282;9.864;2024-03-02T06:09:48;17.35;;;9.68;;
77214;SDS011;66210;53.282;9.864;2024-03-02T06:12:17;16.33;;;8.90;;
77214;SDS011;66210;53.282;9.864;2024-03-02T06:14:44;18.08;;;9.23;;
77214;SDS011;66210;53.282;9.864;2024-03-02T06:17:10;17.75;;;9.60;;
77214;SDS011;66210;53.282;9.864;2024-03-02T06:19:37;15.85;;;9.85;;
77214;SDS011;66210;53.282;9.864;2024-03-02T06:22:04;21.42;;;10.23;;
77214;SDS011;66210;53.282;9.864;2024-03-02T06:24:32;19.15;;;9.70;;
77214;SDS011;66210;53.282;9.864;2024-03-02T06:26:58;17.58;;;10.35;;
77214;SDS011;66210;53.282;9.864;2024-03-02T06:29:25;21.23;;;9.85;;
77214;SDS011;66210;53.282;9.864;2024-03-02T06:31:52;18.35;;;9.25;;
77214;SDS011;66210;53.282;9.864;2024-03-02T06:34:20;16.67;;;9.35;;
77214;SDS011;66210;53.282;9.864;2024-03-02T06:36:47;17.60;;;10.63;;
77214;SDS011;66210;53.282;9.864;2024-03-02T06:39:14;19.05;;;9.77;;
77214;SDS011;66210;53.282;9.864;2024-03-02T06:41:41;16.42;;;9.25;;
77214;SDS011;66210;53.282;9.864;2024-03-02T06:44:09;17.75;;;9.65;;
77214;SDS011;66210;53.282;9.864;2024-03-02T06:46:35;18.35;;;9.75;;
77214;SDS011;66210;53.282;9.864;2024-03-02T06:49:02;18.73;;;9.35;;
77214;SDS011;66210;53.282;9.864;2024-03-02T06:51:30;18.77;;;10.07;;
77214;SDS011;66210;53.282;9.864;2024-03-02T06:53:57;20.02;;;10.10;;
77214;SDS011;66210;53.282;9.864;2024-03-02T06:56:24;20.77;;;10.77;;
77214;SDS011;66210;53.282;9.864;2024-03-02T06:58:51;17.63;;;9.32;;
77214;SDS011;66210;53.282;9.864;2024-03-02T07:01:18;19.08;;;10.27;;
77214;SDS011;66210;53.282;9.864;2024-03-02T07:03:50;20.55;;;10.30;;
77214;SDS011;66210;53.282;9.864;2024-03-02T07:06:17;18.85;;;8.70;;
77214;SDS011;66210;53.282;9.864;2024-03-02T07:08:44;18.98;;;9.30;;
77214;SDS011;66210;53.282;9.864;2024-03-02T07:11:11;18.63;;;10.18;;
77214;SDS011;66210;53.282;9.864;2024-03-02T07:13:38;14.15;;;8.50;;
77214;SDS011;66210;53.282;9.864;2024-03-02T07:16:05;19.30;;;9.48;;
77214;SDS011;66210;53.282;9.864;2024-03-02T07:18:54;16.45;;;9.10;;
77214;SDS011;66210;53.282;9.864;2024-03-02T07:21:22;15.60;;;9.00;;
77214;SDS011;66210;53.282;9.864;2024-03-02T07:23:49;15.70;;;9.32;;
77214;SDS011;66210;53.282;9.864;2024-03-02T07:26:17;17.23;;;9.82;;
77214;SDS011;66210;53.282;9.864;2024-03-02T07:28:49;16.35;;;8.95;;
77214;SDS011;66210;53.282;9.864;2024-03-02T07:31:17;17.70;;;8.45;;
77214;SDS011;66210;53.282;9.864;2024-03-02T07:33:44;15.18;;;9.07;;
77214;SDS011;66210;53.282;9.864;2024-03-02T07:36:12;14.85;;;7.70;;
77214;SDS011;66210;53.282;9.864;2024-03-02T07:38:39;16.05;;;8.43;;
77214;SDS011;66210;53.282;9.864;2024-03-02T07:41:07;14.60;;;8.18;;
77214;SDS011;66210;53.282;9.864;2024-03-02T07:43:35;15.13;;;7.97;;
77214;SDS011;66210;53.282;9.864;2024-03-02T07:46:02;15.13;;;8.20;;
77214;SDS011;66210;53.282;9.864;2024-03-02T07:48:29;14.73;;;8.85;;
77214;SDS011;66210;53.282;9.864;2024-03-02T07:50:57;16.75;;;7.90;;
77214;SDS011;66210;53.282;9.864;2024-03-02T07:53:24;16.33;;;8.27;;
77214;SDS011;66210;53.282;9.864;2024-03-02T07:55:51;14.00;;;7.95;;
77214;SDS011;66210;53.282;9.864;2024-03-02T07:58:18;14.48;;;8.30;;
77214;SDS011;66210;53.282;9.864;2024-03-02T08:00:46;15.45;;;8.35;;
77214;SDS011;66210;53.282;9.864;2024-03-02T08:03:13;12.95;;;8.38;;
77214;SDS011;66210;53.282;9.864;2024-03-02T08:05:41;16.70;;;8.43;;
77214;SDS011;66210;53.282;9.864;2024-03-02T08:08:08;18.27;;;9.43;;
77214;SDS011;66210;53.282;9.864;2024-03-02T08:10:35;17.75;;;10.30;;
77214;SDS011;66210;53.282;9.864;2024-03-02T08:13:02;15.25;;;8.57;;
77214;SDS011;66210;53.282;9.864;2024-03-02T08:15:29;16.65;;;7.82;;
77214;SDS011;66210;53.282;9.864;2024-03-02T08:17:55;15.50;;;8.55;;
77214;SDS011;66210;53.282;9.864;2024-03-02T08:20:22;20.95;;;11.65;;
77214;SDS011;66210;53.282;9.864;2024-03-02T08:22:49;21.83;;;11.27;;
77214;SDS011;66210;53.282;9.864;2024-03-02T08:25:17;16.92;;;10.75;;
77214;SDS011;66210;53.282;9.864;2024-03-02T08:27:44;23.33;;;12.10;;
77214;SDS011;66210;53.282;9.864;2024-03-02T08:30:11;18.45;;;10.35;;
77214;SDS011;66210;53.282;9.864;2024-03-02T08:32:38;19.42;;;10.60;;
77214;SDS011;66210;53.282;9.864;2024-03-02T08:35:05;22.50;;;11.75;;
77214;SDS011;66210;53.282;9.864;2024-03-02T08:37:33;20.98;;;11.57;;
77214;SDS011;66210;53.282;9.864;2024-03-02T08:40:00;22.70;;;11.50;;
77214;SDS011;66210;53.282;9.864;2024-03-02T08:42:26;19.75;;;10.82;;
77214;SDS011;66210;53.282;9.864;2024-03-02T08:44:53;21.90;;;11.75;;
77214;SDS011;66210;53.282;9.864;2024-03-02T08:47:20;19.35;;;10.85;;
77214;SDS011;66210;53.282;9.864;2024-03-02T08:49:47;19.38;;;10.63;;
77214;SDS011;66210;53.282;9.864;2024-03-02T08:52:14;18.30;;;10.48;;
77214;SDS011;66210;53.282;9.864;2024-03-02T08:54:40;25.52;;;11.32;;
77214;SDS011;66210;53.282;9.864;2024-03-02T08:57:07;18.08;;;10.70;;
77214;SDS011;66210;53.282;9.864;2024-03-02T08:59:34;19.25;;;10.70;;
77214;SDS011;66210;53.282;9.864;2024-03-02T09:02:01;25.13;;;11.18;;
77214;SDS011;66210;53.282;9.864;2024-03-02T09:04:28;17.17;;;10.02;;
77214;SDS011;66210;53.282;9.864;2024-03-02T09:06:59;19.65;;;10.48;;
77214;SDS011;66210;53.282;9.864;2024-03-02T09:09:26;17.67;;;10.48;;
77214;SDS011;66210;53.282;9.864;2024-03-02T09:11:52;18.23;;;10.63;;
77214;SDS011;66210;53.282;9.864;2024-03-02T09:14:21;17.73;;;10.77;;
77214;SDS011;66210;53.282;9.864;2024-03-02T09:16:48;16.05;;;9.10;;
77214;SDS011;66210;53.282;9.864;2024-03-02T09:19:15;18.48;;;9.60;;
77214;SDS011;66210;53.282;9.864;2024-03-02T09:21:42;20.52;;;10.25;;
77214;SDS011;66210;53.282;9.864;2024-03-02T09:24:10;20.27;;;10.23;;
77214;SDS011;66210;53.282;9.864;2024-03-02T09:26:39;19.35;;;9.93;;
77214;SDS011;66210;53.282;9.864;2024-03-02T09:29:06;16.10;;;8.38;;
77214;SDS011;66210;53.282;9.864;2024-03-02T09:31:33;16.40;;;9.20;;
77214;SDS011;66210;53.282;9.864;2024-03-02T09:33:59;16.20;;;9.07;;
77214;SDS011;66210;53.282;9.864;2024-03-02T09:36:26;18.67;;;9.50;;
77214;SDS011;66210;53.282;9.864;2024-03-02T09:38:53;16.50;;;9.45;;
77214;SDS011;66210;53.282;9.864;2024-03-02T09:41:20;16.73;;;9.18;;
77214;SDS011;66210;53.282;9.864;2024-03-02T09:43:47;14.13;;;7.72;;
77214;SDS011;66210;53.282;9.864;2024-03-02T09:46:15;13.60;;;7.38;;
77214;SDS011;66210;53.282;9.864;2024-03-02T09:48:43;16.52;;;8.18;;
77214;SDS011;66210;53.282;9.864;2024-03-02T09:51:11;14.90;;;8.68;;
77214;SDS011;66210;53.282;9.864;2024-03-02T09:53:38;14.38;;;8.43;;
77214;SDS011;66210;53.282;9.864;2024-03-02T09:56:05;16.52;;;8.00;;
77214;SDS011;66210;53.282;9.864;2024-03-02T09:58:32;16.73;;;8.68;;
77214;SDS011;66210;53.282;9.864;2024-03-02T10:00:59;13.30;;;7.30;;
77214;SDS011;66210;53.282;9.864;2024-03-02T10:03:25;15.63;;;7.38;;
77214;SDS011;66210;53.282;9.864;2024-03-02T10:05:53;16.20;;;7.47;;
77214;SDS011;66210;53.282;9.864;2024-03-02T10:08:20;13.65;;;7.00;;
77214;SDS011;66210;53.282;9.864;2024-03-02T10:10:47;12.75;;;7.15;;
77214;SDS011;66210;53.282;9.864;2024-03-02T10:13:14;12.02;;;6.82;;
77214;SDS011;66210;53.282;9.864;2024-03-02T10:15:41;12.38;;;7.30;;
77214;SDS011;66210;53.282;9.864;2024-03-02T10:18:09;13.43;;;6.88;;
77214;SDS011;66210;53.282;9.864;2024-03-02T10:20:40;13.57;;;7.47;;
77214;SDS011;66210;53.282;9.864;2024-03-02T10:23:11;15.32;;;6.35;;
77214;SDS011;66210;53.282;9.864;2024-03-02T10:25:39;12.05;;;6.68;;
77214;SDS011;66210;53.282;9.864;2024-03-02T10:28:20;11.93;;;5.88;;
77214;SDS011;66210;53.282;9.864;2024-03-02T10:30:47;11.57;;;6.15;;
77214;SDS011;66210;53.282;9.864;2024-03-02T10:33:17;10.80;;;5.93;;
77214;SDS011;66210;53.282;9.864;2024-03-02T10:35:43;15.38;;;7.22;;
77214;SDS011;66210;53.282;9.864;2024-03-02T10:38:11;9.73;;;5.47;;
77214;SDS011;66210;53.282;9.864;2024-03-02T10:40:38;10.55;;;5.30;;
77214;SDS011;66210;53.282;9.864;2024-03-02T10:43:05;12.00;;;6.72;;
77214;SDS011;66210;53.282;9.864;2024-03-02T10:45:34;12.65;;;6.25;;
77214;SDS011;66210;53.282;9.864;2024-03-02T10:48:01;11.45;;;6.13;;
77214;SDS011;66210;53.282;9.864;2024-03-02T10:50:29;10.30;;;5.53;;
77214;SDS011;66210;53.282;9.864;2024-03-02T10:52:56;12.70;;;6.47;;
77214;SDS011;66210;53.282;9.864;2024-03-02T10:55:23;11.07;;;5.53;;
77214;SDS011;66210;53.282;9.864;2024-03-02T10:57:51;10.57;;;5.03;;
77214;SDS011;66210;53.282;9.864;2024-03-02T11:00:20;11.30;;;5.60;;
77214;SDS011;66210;53.282;9.864;2024-03-02T11:02:57;13.32;;;5.72;;
77214;SDS011;66210;53.282;9.864;2024-03-02T11:05:42;11.88;;;5.55;;
77214;SDS011;66210;53.282;9.864;2024-03-02T11:08:16;10.20;;;5.85;;
77214;SDS011;66210;53.282;9.864;2024-03-02T11:10:50;12.40;;;5.68;;
77214;SDS011;66210;53.282;9.864;2024-03-02T11:13:25;12.40;;;5.45;;
77214;SDS011;66210;53.282;9.864;2024-03-02T11:15:59;9.77;;;4.93;;
77214;SDS011;66210;53.282;9.864;2024-03-02T11:18:30;7.72;;;4.80;;
77214;SDS011;66210;53.282;9.864;2024-03-02T11:20:58;7.97;;;4.88;;
77214;SDS011;66210;53.282;9.864;2024-03-02T11:23:35;9.18;;;5.38;;
77214;SDS011;66210;53.282;9.864;2024-03-02T11:26:16;10.30;;;5.90;;
77214;SDS011;66210;53.282;9.864;2024-03-02T11:28:44;8.70;;;5.38;;
77214;SDS011;66210;53.282;9.864;2024-03-02T11:31:12;8.73;;;5.10;;
77214;SDS011;66210;53.282;9.864;2024-03-02T11:33:38;10.30;;;5.95;;
77214;SDS011;66210;53.282;9.864;2024-03-02T11:36:09;11.15;;;5.95;;
77214;SDS011;66210;53.282;9.864;2024-03-02T11:38:38;10.50;;;6.25;;
77214;SDS011;66210;53.282;9.864;2024-03-02T11:41:06;10.95;;;6.13;;
77214;SDS011;66210;53.282;9.864;2024-03-02T11:43:38;8.95;;;5.47;;
77214;SDS011;66210;53.282;9.864;2024-03-02T11:46:08;10.07;;;5.82;;
77214;SDS011;66210;53.282;9.864;2024-03-02T11:48:35;14.32;;;6.22;;
77214;SDS011;66210;53.282;9.864;2024-03-02T11:51:04;10.57;;;5.72;;
77214;SDS011;66210;53.282;9.864;2024-03-02T11:53:31;12.85;;;6.07;;
77214;SDS011;66210;53.282;9.864;2024-03-02T11:56:02;11.38;;;5.80;;
77214;SDS011;66210;53.282;9.864;2024-03-02T11:58:29;11.20;;;6.38;;
77214;SDS011;66210;53.282;9.864;2024-03-02T12:00:56;10.90;;;5.65;;
77214;SDS011;66210;53.282;9.864;2024-03-02T12:03:24;9.40;;;5.82;;
77214;SDS011;66210;53.282;9.864;2024-03-02T12:05:53;11.43;;;5.70;;
77214;SDS011;66210;53.282;9.864;2024-03-02T12:08:20;9.65;;;5.57;;
77214;SDS011;66210;53.282;9.864;2024-03-02T12:10:58;8.45;;;5.35;;
77214;SDS011;66210;53.282;9.864;2024-03-02T12:13:26;11.23;;;5.95;;
77214;SDS011;66210;53.282;9.864;2024-03-02T12:15:53;8.77;;;5.47;;
77214;SDS011;66210;53.282;9.864;2024-03-02T12:18:22;12.38;;;5.65;;
77214;SDS011;66210;53.282;9.864;2024-03-02T12:20:50;10.68;;;5.82;;
77214;SDS011;66210;53.282;9.864;2024-03-02T12:23:19;10.32;;;5.78;;
77214;SDS011;66210;53.282;9.864;2024-03-02T12:25:46;12.80;;;6.95;;
77214;SDS011;66210;53.282;9.864;2024-03-02T12:28:13;12.45;;;6.25;;
77214;SDS011;66210;53.282;9.864;2024-03-02T12:30:40;10.77;;;5.63;;
77214;SDS011;66210;53.282;9.864;2024-03-02T12:33:07;9.38;;;5.63;;
77214;SDS011;66210;53.282;9.864;2024-03-02T12:35:35;8.68;;;5.53;;
77214;SDS011;66210;53.282;9.864;2024-03-02T12:38:02;10.80;;;5.70;;
77214;SDS011;66210;53.282;9.864;2024-03-02T12:40:30;9.77;;;5.20;;
77214;SDS011;66210;53.282;9.864;2024-03-02T12:42:57;12.45;;;5.80;;
77214;SDS011;66210;53.282;9.864;2024-03-02T12:45:24;12.25;;;5.93;;
77214;SDS011;66210;53.282;9.864;2024-03-02T12:47:51;12.20;;;5.57;;
77214;SDS011;66210;53.282;9.864;2024-03-02T12:50:19;10.40;;;5.43;;
77214;SDS011;66210;53.282;9.864;2024-03-02T12:52:50;12.15;;;6.55;;
77214;SDS011;66210;53.282;9.864;2024-03-02T12:55:21;11.52;;;5.78;;
77214;SDS011;66210;53.282;9.864;2024-03-02T12:57:52;9.82;;;5.72;;
77214;SDS011;66210;53.282;9.864;2024-03-02T13:00:20;13.82;;;5.88;;
77214;SDS011;66210;53.282;9.864;2024-03-02T13:02:48;12.52;;;5.90;;
77214;SDS011;66210;53.282;9.864;2024-03-02T13:05:17;9.50;;;5.38;;
77214;SDS011;66210;53.282;9.864;2024-03-02T13:07:46;12.07;;;5.32;;
77214;SDS011;66210;53.282;9.864;2024-03-02T13:10:14;11.32;;;5.80;;
77214;SDS011;66210;53.282;9.864;2024-03-02T13:12:40;13.85;;;5.85;;
77214;SDS011;66210;53.282;9.864;2024-03-02T13:15:08;11.27;;;5.75;;
77214;SDS011;66210;53.282;9.864;2024-03-02T13:17:35;13.13;;;5.82;;
77214;SDS011;66210;53.282;9.864;2024-03-02T13:20:04;8.30;;;5.13;;
77214;SDS011;66210;53.282;9.864;2024-03-02T13:22:35;8.70;;;5.13;;
77214;SDS011;66210;53.282;9.864;2024-03-02T13:25:02;8.90;;;4.85;;
77214;SDS011;66210;53.282;9.864;2024-03-02T13:27:32;10.85;;;5.63;;
77214;SDS011;66210;53.282;9.864;2024-03-02T13:29:59;8.85;;;5.00;;
77214;SDS011;66210;53.282;9.864;2024-03-02T13:32:27;10.18;;;5.50;;
77214;SDS011;66210;53.282;9.864;2024-03-02T13:34:54;9.00;;;5.22;;
77214;SDS011;66210;53.282;9.864;2024-03-02T13:37:21;12.25;;;5.57;;
77214;SDS011;66210;53.282;9.864;2024-03-02T13:39:48;8.43;;;4.53;;
77214;SDS011;66210;53.282;9.864;2024-03-02T13:42:16;10.32;;;4.70;;
77214;SDS011;66210;53.282;9.864;2024-03-02T13:44:43;7.88;;;4.50;;
77214;SDS011;66210;53.282;9.864;2024-03-02T13:47:13;21.67;;;5.22;;
77214;SDS011;66210;53.282;9.864;2024-03-02T13:49:41;8.52;;;4.70;;
77214;SDS011;66210;53.282;9.864;2024-03-02T13:52:12;7.85;;;4.53;;
77214;SDS011;66210;53.282;9.864;2024-03-02T13:54:44;9.40;;;5.57;;
77214;SDS011;66210;53.282;9.864;2024-03-02T13:57:13;8.95;;;4.20;;
77214;SDS011;66210;53.282;9.864;2024-03-02T13:59:41;9.40;;;5.00;;
77214;SDS011;66210;53.282;9.864;2024-03-02T14:02:09;8.23;;;4.72;;
77214;SDS011;66210;53.282;9.864;2024-03-02T14:04:37;7.50;;;4.75;;
77214;SDS011;66210;53.282;9.864;2024-03-02T14:07:05;10.18;;;5.03;;
77214;SDS011;66210;53.282;9.864;2024-03-02T14:09:35;11.70;;;4.80;;
77214;SDS011;66210;53.282;9.864;2024-03-02T14:12:03;9.90;;;5.10;;
77214;SDS011;66210;53.282;9.864;2024-03-02T14:14:31;14.70;;;5.95;;
77214;SDS011;66210;53.282;9.864;2024-03-02T14:16:58;11.90;;;5.13;;
77214;SDS011;66210;53.282;9.864;2024-03-02T14:19:32;6.65;;;4.40;;
77214;SDS011;66210;53.282;9.864;2024-03-02T14:21:59;10.38;;;4.82;;
77214;SDS011;66210;53.282;9.864;2024-03-02T14:24:26;9.57;;;4.47;;
77214;SDS011;66210;53.282;9.864;2024-03-02T14:26:55;7.25;;;4.63;;
77214;SDS011;66210;53.282;9.864;2024-03-02T14:29:36;9.32;;;4.93;;
77214;SDS011;66210;53.282;9.864;2024-03-02T14:32:04;9.65;;;4.50;;
77214;SDS011;66210;53.282;9.864;2024-03-02T14:34:32;9.50;;;5.22;;
77214;SDS011;66210;53.282;9.864;2024-03-02T14:37:01;8.57;;;4.90;;
77214;SDS011;66210;53.282;9.864;2024-03-02T14:39:29;7.90;;;5.32;;
77214;SDS011;66210;53.282;9.864;2024-03-02T14:42:01;8.23;;;4.85;;